sensor_id;sensor_type;location;lat;lon;timestamp;temperature;humidity
20442;DHT22;10380;52.102;20.614;2022-07-19T00:00:43;19.90;99.90
20442;DHT22;10380;52.102;20.614;2022-07-19T00:03:14;19.90;99.90
20442;DHT22;10380;52.102;20.614;2022-07-19T00:05:41;19.80;99.90
20442;DHT22;10380;52.102;20.614;2022-07-19T00:08:09;19.80;99.90
20442;DHT22;10380;52.102;20.614;2022-07-19T00:10:37;19.70;99.90
20442;DHT22;10380;52.102;20.614;2022-07-19T00:13:04;19.70;99.90
20442;DHT22;10380;52.102;20.614;2022-07-19T00:15:31;19.70;99.90
20442;DHT22;10380;52.102;20.614;2022-07-19T00:17:58;19.70;99.90
20442;DHT22;10380;52.102;20.614;2022-07-19T00:20:25;19.70;99.90
20442;DHT22;10380;52.102;20.614;2022-07-19T00:22:52;19.70;99.90
20442;DHT22;10380;52.102;20.614;2022-07-19T00:25:19;19.60;99.90
20442;DHT22;10380;52.102;20.614;2022-07-19T00:27:46;19.60;99.90
20442;DHT22;10380;52.102;20.614;2022-07-19T00:30:13;19.60;99.90
20442;DHT22;10380;52.102;20.614;2022-07-19T00:32:40;19.60;99.90
20442;DHT22;10380;52.102;20.614;2022-07-19T00:35:07;19.60;99.90
20442;DHT22;10380;52.102;20.614;2022-07-19T00:37:34;19.60;99.90
20442;DHT22;10380;52.102;20.614;2022-07-19T00:40:02;19.60;99.90
20442;DHT22;10380;52.102;20.614;2022-07-19T00:42:29;19.50;99.90
20442;DHT22;10380;52.102;20.614;2022-07-19T00:44:56;19.50;99.90
20442;DHT22;10380;52.102;20.614;2022-07-19T00:47:24;19.50;99.90
20442;DHT22;10380;52.102;20.614;2022-07-19T00:49:51;19.50;99.90
20442;DHT22;10380;52.102;20.614;2022-07-19T00:52:19;19.50;99.90
20442;DHT22;10380;52.102;20.614;2022-07-19T00:54:49;19.40;99.90
20442;DHT22;10380;52.102;20.614;2022-07-19T00:57:19;19.40;99.90
20442;DHT22;10380;52.102;20.614;2022-07-19T00:59:47;19.40;99.90
20442;DHT22;10380;52.102;20.614;2022-07-19T01:02:16;19.30;99.90
20442;DHT22;10380;52.102;20.614;2022-07-19T01:04:44;19.30;99.90
20442;DHT22;10380;52.102;20.614;2022-07-19T01:07:12;19.30;99.90
20442;DHT22;10380;52.102;20.614;2022-07-19T01:09:40;19.30;99.90
20442;DHT22;10380;52.102;20.614;2022-07-19T01:12:08;19.30;99.90
20442;DHT22;10380;52.102;20.614;2022-07-19T01:14:35;19.30;99.90
20442;DHT22;10380;52.102;20.614;2022-07-19T01:17:04;19.30;99.90
20442;DHT22;10380;52.102;20.614;2022-07-19T01:19:31;19.30;99.90
20442;DHT22;10380;52.102;20.614;2022-07-19T01:21:59;19.30;99.90
20442;DHT22;10380;52.102;20.614;2022-07-19T01:24:26;19.30;99.90
20442;DHT22;10380;52.102;20.614;2022-07-19T01:26:54;19.30;99.90
20442;DHT22;10380;52.102;20.614;2022-07-19T01:29:21;19.30;99.90
20442;DHT22;10380;52.102;20.614;2022-07-19T01:31:48;19.30;99.90
20442;DHT22;10380;52.102;20.614;2022-07-19T01:34:16;19.30;99.90
20442;DHT22;10380;52.102;20.614;2022-07-19T01:36:42;19.30;99.90
20442;DHT22;10380;52.102;20.614;2022-07-19T01:39:10;19.30;99.90
20442;DHT22;10380;52.102;20.614;2022-07-19T01:41:36;19.30;99.90
20442;DHT22;10380;52.102;20.614;2022-07-19T01:44:04;19.30;99.90
20442;DHT22;10380;52.102;20.614;2022-07-19T01:46:31;19.30;99.90
20442;DHT22;10380;52.102;20.614;2022-07-19T01:49:00;19.20;99.90
20442;DHT22;10380;52.102;20.614;2022-07-19T01:51:27;19.30;99.90
20442;DHT22;10380;52.102;20.614;2022-07-19T01:53:53;19.20;99.90
20442;DHT22;10380;52.102;20.614;2022-07-19T01:56:20;19.20;99.90
20442;DHT22;10380;52.102;20.614;2022-07-19T01:58:47;19.10;99.90
20442;DHT22;10380;52.102;20.614;2022-07-19T02:01:14;19.10;99.90
20442;DHT22;10380;52.102;20.614;2022-07-19T02:03:42;19.10;99.90
20442;DHT22;10380;52.102;20.614;2022-07-19T02:06:09;19.10;99.90
20442;DHT22;10380;52.102;20.614;2022-07-19T02:08:36;19.10;99.90
20442;DHT22;10380;52.102;20.614;2022-07-19T02:11:03;19.10;99.90
20442;DHT22;10380;52.102;20.614;2022-07-19T02:13:50;19.10;99.90
20442;DHT22;10380;52.102;20.614;2022-07-19T02:16:17;19.10;99.90
20442;DHT22;10380;52.102;20.614;2022-07-19T02:18:45;19.10;99.90
20442;DHT22;10380;52.102;20.614;2022-07-19T02:21:11;19.00;99.90
20442;DHT22;10380;52.102;20.614;2022-07-19T02:23:38;18.90;99.90
20442;DHT22;10380;52.102;20.614;2022-07-19T02:26:05;18.90;99.90
20442;DHT22;10380;52.102;20.614;2022-07-19T02:28:32;18.90;99.90
20442;DHT22;10380;52.102;20.614;2022-07-19T02:30:59;18.90;99.90
20442;DHT22;10380;52.102;20.614;2022-07-19T02:33:26;18.80;99.90
20442;DHT22;10380;52.102;20.614;2022-07-19T02:35:53;18.80;99.90
20442;DHT22;10380;52.102;20.614;2022-07-19T02:38:20;18.80;99.90
20442;DHT22;10380;52.102;20.614;2022-07-19T02:40:47;18.70;99.90
20442;DHT22;10380;52.102;20.614;2022-07-19T02:43:14;18.70;99.90
20442;DHT22;10380;52.102;20.614;2022-07-19T02:45:41;18.70;99.90
20442;DHT22;10380;52.102;20.614;2022-07-19T02:48:11;18.70;99.90
20442;DHT22;10380;52.102;20.614;2022-07-19T02:50:38;18.70;99.90
20442;DHT22;10380;52.102;20.614;2022-07-19T02:53:08;18.60;99.90
20442;DHT22;10380;52.102;20.614;2022-07-19T02:55:35;18.70;99.90
20442;DHT22;10380;52.102;20.614;2022-07-19T02:58:02;18.70;99.90
20442;DHT22;10380;52.102;20.614;2022-07-19T03:00:30;18.70;99.90
20442;DHT22;10380;52.102;20.614;2022-07-19T03:03:05;18.80;99.90
20442;DHT22;10380;52.102;20.614;2022-07-19T03:05:51;18.80;99.90
20442;DHT22;10380;52.102;20.614;2022-07-19T03:08:18;18.80;99.90
20442;DHT22;10380;52.102;20.614;2022-07-19T03:10:45;18.90;99.90
20442;DHT22;10380;52.102;20.614;2022-07-19T03:13:11;18.90;99.90
20442;DHT22;10380;52.102;20.614;2022-07-19T03:15:39;18.80;99.90
20442;DHT22;10380;52.102;20.614;2022-07-19T03:18:06;18.80;99.90
20442;DHT22;10380;52.102;20.614;2022-07-19T03:20:33;18.90;99.90
20442;DHT22;10380;52.102;20.614;2022-07-19T03:23:00;18.90;99.90
20442;DHT22;10380;52.102;20.614;2022-07-19T03:25:28;18.90;99.90
20442;DHT22;10380;52.102;20.614;2022-07-19T03:27:55;18.90;99.90
20442;DHT22;10380;52.102;20.614;2022-07-19T03:30:22;19.00;99.90
20442;DHT22;10380;52.102;20.614;2022-07-19T03:32:49;19.00;99.90
20442;DHT22;10380;52.102;20.614;2022-07-19T03:35:17;19.00;99.90
20442;DHT22;10380;52.102;20.614;2022-07-19T03:37:44;19.10;99.90
20442;DHT22;10380;52.102;20.614;2022-07-19T03:40:11;19.10;99.90
20442;DHT22;10380;52.102;20.614;2022-07-19T03:42:38;19.00;99.90
20442;DHT22;10380;52.102;20.614;2022-07-19T03:45:06;19.10;99.90
20442;DHT22;10380;52.102;20.614;2022-07-19T03:47:33;19.10;99.90
20442;DHT22;10380;52.102;20.614;2022-07-19T03:50:00;19.10;99.90
20442;DHT22;10380;52.102;20.614;2022-07-19T03:52:27;19.10;99.90
20442;DHT22;10380;52.102;20.614;2022-07-19T03:54:55;19.10;99.90
20442;DHT22;10380;52.102;20.614;2022-07-19T03:57:22;19.20;99.90
20442;DHT22;10380;52.102;20.614;2022-07-19T03:59:49;19.20;99.90
20442;DHT22;10380;52.102;20.614;2022-07-19T04:02:16;19.30;99.90
20442;DHT22;10380;52.102;20.614;2022-07-19T04:04:43;19.30;99.90
20442;DHT22;10380;52.102;20.614;2022-07-19T04:07:10;19.40;99.90
20442;DHT22;10380;52.102;20.614;2022-07-19T04:09:37;19.40;99.90
20442;DHT22;10380;52.102;20.614;2022-07-19T04:12:04;19.40;99.90
20442;DHT22;10380;52.102;20.614;2022-07-19T04:14:31;19.40;99.90
20442;DHT22;10380;52.102;20.614;2022-07-19T04:16:57;19.30;99.90
20442;DHT22;10380;52.102;20.614;2022-07-19T04:19:24;19.30;99.90
20442;DHT22;10380;52.102;20.614;2022-07-19T04:21:52;19.20;99.90
20442;DHT22;10380;52.102;20.614;2022-07-19T04:24:20;19.20;99.90
20442;DHT22;10380;52.102;20.614;2022-07-19T04:26:47;19.20;99.90
20442;DHT22;10380;52.102;20.614;2022-07-19T04:29:14;19.20;99.90
20442;DHT22;10380;52.102;20.614;2022-07-19T04:31:41;19.20;99.90
20442;DHT22;10380;52.102;20.614;2022-07-19T04:34:08;19.20;99.90
20442;DHT22;10380;52.102;20.614;2022-07-19T04:36:35;19.20;99.90
20442;DHT22;10380;52.102;20.614;2022-07-19T04:39:02;19.20;99.90
20442;DHT22;10380;52.102;20.614;2022-07-19T04:41:29;19.20;99.90
20442;DHT22;10380;52.102;20.614;2022-07-19T04:43:56;19.20;99.90
20442;DHT22;10380;52.102;20.614;2022-07-19T04:46:23;19.20;99.90
20442;DHT22;10380;52.102;20.614;2022-07-19T04:48:51;19.20;99.90
20442;DHT22;10380;52.102;20.614;2022-07-19T04:51:18;19.20;99.90
20442;DHT22;10380;52.102;20.614;2022-07-19T04:53:44;19.20;99.90
20442;DHT22;10380;52.102;20.614;2022-07-19T04:56:12;19.30;99.90
20442;DHT22;10380;52.102;20.614;2022-07-19T04:58:39;19.30;99.90
20442;DHT22;10380;52.102;20.614;2022-07-19T05:01:06;19.30;99.90
20442;DHT22;10380;52.102;20.614;2022-07-19T05:03:33;19.30;99.90
20442;DHT22;10380;52.102;20.614;2022-07-19T05:06:00;19.40;99.90
20442;DHT22;10380;52.102;20.614;2022-07-19T05:08:27;19.40;99.90
20442;DHT22;10380;52.102;20.614;2022-07-19T05:10:54;19.50;99.90
20442;DHT22;10380;52.102;20.614;2022-07-19T05:13:21;19.50;99.90
20442;DHT22;10380;52.102;20.614;2022-07-19T05:15:48;19.50;99.90
20442;DHT22;10380;52.102;20.614;2022-07-19T05:18:15;19.60;99.90
20442;DHT22;10380;52.102;20.614;2022-07-19T05:20:42;19.60;99.90
20442;DHT22;10380;52.102;20.614;2022-07-19T05:23:09;19.70;99.90
20442;DHT22;10380;52.102;20.614;2022-07-19T05:25:37;19.70;99.90
20442;DHT22;10380;52.102;20.614;2022-07-19T05:28:04;19.80;99.90
20442;DHT22;10380;52.102;20.614;2022-07-19T05:30:31;19.90;99.90
20442;DHT22;10380;52.102;20.614;2022-07-19T05:32:58;19.90;99.90
20442;DHT22;10380;52.102;20.614;2022-07-19T05:35:25;19.90;99.90
20442;DHT22;10380;52.102;20.614;2022-07-19T05:37:53;20.00;99.90
20442;DHT22;10380;52.102;20.614;2022-07-19T05:40:20;20.00;99.90
20442;DHT22;10380;52.102;20.614;2022-07-19T05:42:47;20.10;99.90
20442;DHT22;10380;52.102;20.614;2022-07-19T05:45:14;20.10;99.90
20442;DHT22;10380;52.102;20.614;2022-07-19T05:47:41;20.20;99.90
20442;DHT22;10380;52.102;20.614;2022-07-19T05:50:08;20.10;99.90
20442;DHT22;10380;52.102;20.614;2022-07-19T05:52:35;20.20;99.90
20442;DHT22;10380;52.102;20.614;2022-07-19T05:55:05;20.10;99.90
20442;DHT22;10380;52.102;20.614;2022-07-19T05:57:33;20.20;99.90
20442;DHT22;10380;52.102;20.614;2022-07-19T06:00:00;20.20;99.90
20442;DHT22;10380;52.102;20.614;2022-07-19T06:02:26;20.30;99.90
20442;DHT22;10380;52.102;20.614;2022-07-19T06:04:54;20.30;99.90
20442;DHT22;10380;52.102;20.614;2022-07-19T06:07:20;20.40;99.90
20442;DHT22;10380;52.102;20.614;2022-07-19T06:09:47;20.40;99.90
20442;DHT22;10380;52.102;20.614;2022-07-19T06:12:14;20.40;99.90
20442;DHT22;10380;52.102;20.614;2022-07-19T06:14:41;20.50;99.90
20442;DHT22;10380;52.102;20.614;2022-07-19T06:17:08;20.50;99.90
20442;DHT22;10380;52.102;20.614;2022-07-19T06:19:35;20.50;99.90
20442;DHT22;10380;52.102;20.614;2022-07-19T06:22:02;20.60;99.90
20442;DHT22;10380;52.102;20.614;2022-07-19T06:24:29;20.60;99.90
20442;DHT22;10380;52.102;20.614;2022-07-19T06:26:57;20.70;99.90
20442;DHT22;10380;52.102;20.614;2022-07-19T06:29:24;20.70;99.90
20442;DHT22;10380;52.102;20.614;2022-07-19T06:31:53;20.80;99.90
20442;DHT22;10380;52.102;20.614;2022-07-19T06:34:20;20.80;99.90
20442;DHT22;10380;52.102;20.614;2022-07-19T06:36:47;20.80;99.90
20442;DHT22;10380;52.102;20.614;2022-07-19T06:39:15;20.90;99.90
20442;DHT22;10380;52.102;20.614;2022-07-19T06:41:42;21.00;99.90
20442;DHT22;10380;52.102;20.614;2022-07-19T06:44:09;21.00;99.90
20442;DHT22;10380;52.102;20.614;2022-07-19T06:46:35;21.10;99.90
20442;DHT22;10380;52.102;20.614;2022-07-19T06:49:03;21.20;99.90
20442;DHT22;10380;52.102;20.614;2022-07-19T06:51:30;21.30;99.90
20442;DHT22;10380;52.102;20.614;2022-07-19T06:53:57;21.40;99.90
20442;DHT22;10380;52.102;20.614;2022-07-19T06:56:24;21.50;99.90
20442;DHT22;10380;52.102;20.614;2022-07-19T06:58:50;21.50;99.90
20442;DHT22;10380;52.102;20.614;2022-07-19T07:01:17;21.60;99.90
20442;DHT22;10380;52.102;20.614;2022-07-19T07:03:46;21.70;99.90
20442;DHT22;10380;52.102;20.614;2022-07-19T07:06:13;21.80;99.90
20442;DHT22;10380;52.102;20.614;2022-07-19T07:08:40;21.90;99.90
20442;DHT22;10380;52.102;20.614;2022-07-19T07:11:07;22.00;99.90
20442;DHT22;10380;52.102;20.614;2022-07-19T07:13:36;22.20;99.90
20442;DHT22;10380;52.102;20.614;2022-07-19T07:16:04;22.30;99.90
20442;DHT22;10380;52.102;20.614;2022-07-19T07:18:31;22.40;99.90
20442;DHT22;10380;52.102;20.614;2022-07-19T07:20:59;22.60;99.90
20442;DHT22;10380;52.102;20.614;2022-07-19T07:23:26;22.60;99.90
20442;DHT22;10380;52.102;20.614;2022-07-19T07:25:53;22.70;99.90
20442;DHT22;10380;52.102;20.614;2022-07-19T07:28:20;22.70;99.90
20442;DHT22;10380;52.102;20.614;2022-07-19T07:30:52;22.70;99.90
20442;DHT22;10380;52.102;20.614;2022-07-19T07:33:19;22.70;99.90
20442;DHT22;10380;52.102;20.614;2022-07-19T07:35:46;22.80;99.90
20442;DHT22;10380;52.102;20.614;2022-07-19T07:38:13;22.80;99.90
20442;DHT22;10380;52.102;20.614;2022-07-19T07:40:42;22.90;99.90
20442;DHT22;10380;52.102;20.614;2022-07-19T07:43:11;23.00;99.90
20442;DHT22;10380;52.102;20.614;2022-07-19T07:45:38;23.10;99.90
20442;DHT22;10380;52.102;20.614;2022-07-19T07:48:05;23.20;99.90
20442;DHT22;10380;52.102;20.614;2022-07-19T07:50:33;23.40;99.90
20442;DHT22;10380;52.102;20.614;2022-07-19T07:52:59;23.50;99.90
20442;DHT22;10380;52.102;20.614;2022-07-19T07:55:26;23.70;99.90
20442;DHT22;10380;52.102;20.614;2022-07-19T07:57:56;23.70;99.90
20442;DHT22;10380;52.102;20.614;2022-07-19T08:00:23;23.70;99.90
20442;DHT22;10380;52.102;20.614;2022-07-19T08:02:50;23.80;99.90
20442;DHT22;10380;52.102;20.614;2022-07-19T08:05:20;23.80;99.90
20442;DHT22;10380;52.102;20.614;2022-07-19T08:07:51;23.90;99.90
20442;DHT22;10380;52.102;20.614;2022-07-19T08:10:21;24.00;99.90
20442;DHT22;10380;52.102;20.614;2022-07-19T08:12:48;24.10;99.90
20442;DHT22;10380;52.102;20.614;2022-07-19T08:15:15;24.20;99.90
20442;DHT22;10380;52.102;20.614;2022-07-19T08:17:42;24.30;99.90
20442;DHT22;10380;52.102;20.614;2022-07-19T08:20:10;24.40;99.90
20442;DHT22;10380;52.102;20.614;2022-07-19T08:22:37;24.60;99.90
20442;DHT22;10380;52.102;20.614;2022-07-19T08:25:04;24.70;99.90
20442;DHT22;10380;52.102;20.614;2022-07-19T08:27:31;24.80;99.90
20442;DHT22;10380;52.102;20.614;2022-07-19T08:30:02;24.90;99.90
20442;DHT22;10380;52.102;20.614;2022-07-19T08:32:36;25.00;99.90
20442;DHT22;10380;52.102;20.614;2022-07-19T08:35:04;25.10;99.90
20442;DHT22;10380;52.102;20.614;2022-07-19T08:37:31;25.10;99.90
20442;DHT22;10380;52.102;20.614;2022-07-19T08:40:02;25.20;99.90
20442;DHT22;10380;52.102;20.614;2022-07-19T08:42:30;25.20;99.90
20442;DHT22;10380;52.102;20.614;2022-07-19T08:45:04;25.20;99.90
20442;DHT22;10380;52.102;20.614;2022-07-19T08:47:31;25.20;99.90
20442;DHT22;10380;52.102;20.614;2022-07-19T08:50:00;25.20;99.90
20442;DHT22;10380;52.102;20.614;2022-07-19T08:52:27;25.20;99.90
20442;DHT22;10380;52.102;20.614;2022-07-19T08:54:55;25.10;99.90
20442;DHT22;10380;52.102;20.614;2022-07-19T08:57:24;25.10;99.90
20442;DHT22;10380;52.102;20.614;2022-07-19T09:00:12;25.00;99.90
20442;DHT22;10380;52.102;20.614;2022-07-19T09:03:03;24.90;99.90
20442;DHT22;10380;52.102;20.614;2022-07-19T09:05:32;24.80;99.90
20442;DHT22;10380;52.102;20.614;2022-07-19T09:08:12;24.80;99.90
20442;DHT22;10380;52.102;20.614;2022-07-19T09:10:43;24.90;99.90
20442;DHT22;10380;52.102;20.614;2022-07-19T09:13:12;25.00;99.90
20442;DHT22;10380;52.102;20.614;2022-07-19T09:15:50;25.10;99.90
20442;DHT22;10380;52.102;20.614;2022-07-19T09:18:23;25.10;99.90
20442;DHT22;10380;52.102;20.614;2022-07-19T09:20:56;25.20;99.90
20442;DHT22;10380;52.102;20.614;2022-07-19T09:23:24;25.30;99.90
20442;DHT22;10380;52.102;20.614;2022-07-19T09:25:57;25.40;99.90
20442;DHT22;10380;52.102;20.614;2022-07-19T09:28:27;25.40;99.90
20442;DHT22;10380;52.102;20.614;2022-07-19T09:30:58;25.50;99.90
20442;DHT22;10380;52.102;20.614;2022-07-19T09:33:27;25.60;99.90
20442;DHT22;10380;52.102;20.614;2022-07-19T09:35:57;25.60;99.90
20442;DHT22;10380;52.102;20.614;2022-07-19T09:38:31;25.60;99.90
20442;DHT22;10380;52.102;20.614;2022-07-19T09:43:59;25.70;99.90
20442;DHT22;10380;52.102;20.614;2022-07-19T09:46:36;25.80;99.90
20442;DHT22;10380;52.102;20.614;2022-07-19T09:49:09;25.90;99.90
20442;DHT22;10380;52.102;20.614;2022-07-19T09:51:38;25.90;99.90
20442;DHT22;10380;52.102;20.614;2022-07-19T09:54:08;25.90;99.90
20442;DHT22;10380;52.102;20.614;2022-07-19T09:56:42;26.00;99.90
20442;DHT22;10380;52.102;20.614;2022-07-19T09:59:10;26.00;99.90
20442;DHT22;10380;52.102;20.614;2022-07-19T10:01:39;26.00;99.90
20442;DHT22;10380;52.102;20.614;2022-07-19T10:04:13;25.90;99.90
20442;DHT22;10380;52.102;20.614;2022-07-19T10:06:41;25.90;99.90
20442;DHT22;10380;52.102;20.614;2022-07-19T10:09:11;25.90;99.90
20442;DHT22;10380;52.102;20.614;2022-07-19T10:11:39;26.00;99.90
20442;DHT22;10380;52.102;20.614;2022-07-19T10:14:06;26.00;99.90
20442;DHT22;10380;52.102;20.614;2022-07-19T10:21:57;26.20;99.90
20442;DHT22;10380;52.102;20.614;2022-07-19T10:24:46;26.30;99.90
20442;DHT22;10380;52.102;20.614;2022-07-19T10:27:33;26.30;99.90
20442;DHT22;10380;52.102;20.614;2022-07-19T10:32:35;26.40;99.90
20442;DHT22;10380;52.102;20.614;2022-07-19T10:35:17;26.40;99.90
20442;DHT22;10380;52.102;20.614;2022-07-19T10:37:49;26.40;99.90
20442;DHT22;10380;52.102;20.614;2022-07-19T10:40:35;26.40;99.90
20442;DHT22;10380;52.102;20.614;2022-07-19T10:46:23;26.50;99.90
20442;DHT22;10380;52.102;20.614;2022-07-19T10:48:52;26.60;99.90
20442;DHT22;10380;52.102;20.614;2022-07-19T10:51:33;26.60;99.90
20442;DHT22;10380;52.102;20.614;2022-07-19T10:54:09;26.70;99.90
20442;DHT22;10380;52.102;20.614;2022-07-19T10:56:42;26.70;99.90
20442;DHT22;10380;52.102;20.614;2022-07-19T10:59:35;26.90;99.90
20442;DHT22;10380;52.102;20.614;2022-07-19T11:02:02;27.00;99.90
20442;DHT22;10380;52.102;20.614;2022-07-19T11:04:52;27.20;99.90
20442;DHT22;10380;52.102;20.614;2022-07-19T11:07:21;27.20;99.90
20442;DHT22;10380;52.102;20.614;2022-07-19T11:09:55;27.20;99.90
20442;DHT22;10380;52.102;20.614;2022-07-19T11:12:24;27.30;99.90
20442;DHT22;10380;52.102;20.614;2022-07-19T11:14:52;27.30;99.90
20442;DHT22;10380;52.102;20.614;2022-07-19T11:17:39;27.30;99.90
20442;DHT22;10380;52.102;20.614;2022-07-19T11:20:11;27.30;99.90
20442;DHT22;10380;52.102;20.614;2022-07-19T11:22:44;27.40;99.90
20442;DHT22;10380;52.102;20.614;2022-07-19T11:25:13;27.50;99.90
20442;DHT22;10380;52.102;20.614;2022-07-19T11:27:45;27.60;99.90
20442;DHT22;10380;52.102;20.614;2022-07-19T11:30:13;27.70;99.90
20442;DHT22;10380;52.102;20.614;2022-07-19T11:32:42;27.80;99.90
20442;DHT22;10380;52.102;20.614;2022-07-19T11:35:12;28.00;99.90
20442;DHT22;10380;52.102;20.614;2022-07-19T11:37:41;28.10;99.90
20442;DHT22;10380;52.102;20.614;2022-07-19T11:40:11;28.10;99.90
20442;DHT22;10380;52.102;20.614;2022-07-19T11:45:26;28.30;99.90
20442;DHT22;10380;52.102;20.614;2022-07-19T11:47:55;28.40;99.90
20442;DHT22;10380;52.102;20.614;2022-07-19T11:50:26;28.50;99.90
20442;DHT22;10380;52.102;20.614;2022-07-19T11:52:57;28.70;99.90
20442;DHT22;10380;52.102;20.614;2022-07-19T11:55:36;29.00;99.90
20442;DHT22;10380;52.102;20.614;2022-07-19T11:58:07;29.50;99.90
20442;DHT22;10380;52.102;20.614;2022-07-19T12:00:35;30.30;99.90
20442;DHT22;10380;52.102;20.614;2022-07-19T12:03:06;31.10;99.60
20442;DHT22;10380;52.102;20.614;2022-07-19T12:05:38;31.90;99.20
20442;DHT22;10380;52.102;20.614;2022-07-19T12:08:09;32.40;96.90
20442;DHT22;10380;52.102;20.614;2022-07-19T12:10:44;32.70;95.00
20442;DHT22;10380;52.102;20.614;2022-07-19T12:13:13;32.60;93.60
20442;DHT22;10380;52.102;20.614;2022-07-19T12:16:08;32.70;93.00
20442;DHT22;10380;52.102;20.614;2022-07-19T12:18:55;33.30;92.20
20442;DHT22;10380;52.102;20.614;2022-07-19T12:21:27;34.10;91.60
20442;DHT22;10380;52.102;20.614;2022-07-19T12:24:18;34.70;91.10
20442;DHT22;10380;52.102;20.614;2022-07-19T12:29:34;36.00;87.90
20442;DHT22;10380;52.102;20.614;2022-07-19T12:32:05;36.60;84.60
20442;DHT22;10380;52.102;20.614;2022-07-19T12:34:43;37.10;82.80
20442;DHT22;10380;52.102;20.614;2022-07-19T12:37:21;37.40;80.10
20442;DHT22;10380;52.102;20.614;2022-07-19T12:42:26;37.70;75.60
20442;DHT22;10380;52.102;20.614;2022-07-19T12:44:53;37.30;76.40
20442;DHT22;10380;52.102;20.614;2022-07-19T12:47:20;36.80;75.10
20442;DHT22;10380;52.102;20.614;2022-07-19T12:50:04;36.80;75.60
20442;DHT22;10380;52.102;20.614;2022-07-19T12:52:39;36.60;75.30
20442;DHT22;10380;52.102;20.614;2022-07-19T12:55:06;36.40;74.90
20442;DHT22;10380;52.102;20.614;2022-07-19T12:57:40;36.50;75.00
20442;DHT22;10380;52.102;20.614;2022-07-19T13:00:08;36.50;74.50
20442;DHT22;10380;52.102;20.614;2022-07-19T13:02:35;36.70;73.90
20442;DHT22;10380;52.102;20.614;2022-07-19T13:05:02;36.70;73.70
20442;DHT22;10380;52.102;20.614;2022-07-19T13:07:29;37.10;74.70
20442;DHT22;10380;52.102;20.614;2022-07-19T13:09:55;37.30;73.90
20442;DHT22;10380;52.102;20.614;2022-07-19T13:12:22;36.90;71.30
20442;DHT22;10380;52.102;20.614;2022-07-19T13:14:49;36.90;71.70
20442;DHT22;10380;52.102;20.614;2022-07-19T13:17:16;37.20;72.10
20442;DHT22;10380;52.102;20.614;2022-07-19T13:19:43;37.50;70.70
20442;DHT22;10380;52.102;20.614;2022-07-19T13:22:11;38.20;70.30
20442;DHT22;10380;52.102;20.614;2022-07-19T13:24:38;39.20;70.10
20442;DHT22;10380;52.102;20.614;2022-07-19T13:27:25;39.80;68.80
20442;DHT22;10380;52.102;20.614;2022-07-19T13:29:52;39.90;67.70
20442;DHT22;10380;52.102;20.614;2022-07-19T13:32:19;40.20;67.30
20442;DHT22;10380;52.102;20.614;2022-07-19T13:34:46;40.10;65.00
20442;DHT22;10380;52.102;20.614;2022-07-19T13:37:14;39.90;64.20
20442;DHT22;10380;52.102;20.614;2022-07-19T13:39:41;39.50;64.90
20442;DHT22;10380;52.102;20.614;2022-07-19T13:42:09;39.60;65.40
20442;DHT22;10380;52.102;20.614;2022-07-19T13:44:37;40.10;64.70
20442;DHT22;10380;52.102;20.614;2022-07-19T13:47:03;40.70;64.40
20442;DHT22;10380;52.102;20.614;2022-07-19T13:49:30;41.30;63.20
20442;DHT22;10380;52.102;20.614;2022-07-19T13:51:57;41.60;61.50
20442;DHT22;10380;52.102;20.614;2022-07-19T13:54:24;41.70;60.00
20442;DHT22;10380;52.102;20.614;2022-07-19T13:56:51;41.30;59.50
20442;DHT22;10380;52.102;20.614;2022-07-19T13:59:19;40.40;59.60
20442;DHT22;10380;52.102;20.614;2022-07-19T14:01:47;39.90;61.20
20442;DHT22;10380;52.102;20.614;2022-07-19T14:04:14;39.50;61.60
20442;DHT22;10380;52.102;20.614;2022-07-19T14:06:56;39.30;61.40
20442;DHT22;10380;52.102;20.614;2022-07-19T14:09:23;38.70;60.50
20442;DHT22;10380;52.102;20.614;2022-07-19T14:11:51;38.60;61.90
20442;DHT22;10380;52.102;20.614;2022-07-19T14:14:18;38.60;62.20
20442;DHT22;10380;52.102;20.614;2022-07-19T14:16:46;38.60;61.40
20442;DHT22;10380;52.102;20.614;2022-07-19T14:19:13;38.20;59.90
20442;DHT22;10380;52.102;20.614;2022-07-19T14:21:40;37.80;60.40
20442;DHT22;10380;52.102;20.614;2022-07-19T14:24:07;38.00;61.20
20442;DHT22;10380;52.102;20.614;2022-07-19T14:26:36;38.10;61.70
20442;DHT22;10380;52.102;20.614;2022-07-19T14:29:04;38.30;60.80
20442;DHT22;10380;52.102;20.614;2022-07-19T14:31:31;38.40;60.90
20442;DHT22;10380;52.102;20.614;2022-07-19T14:34:03;38.70;60.70
20442;DHT22;10380;52.102;20.614;2022-07-19T14:36:50;38.90;60.20
20442;DHT22;10380;52.102;20.614;2022-07-19T14:39:17;39.00;60.30
20442;DHT22;10380;52.102;20.614;2022-07-19T14:41:44;38.80;59.00
20442;DHT22;10380;52.102;20.614;2022-07-19T14:44:14;38.50;59.90
20442;DHT22;10380;52.102;20.614;2022-07-19T14:46:42;37.80;59.80
20442;DHT22;10380;52.102;20.614;2022-07-19T14:49:09;37.30;60.80
20442;DHT22;10380;52.102;20.614;2022-07-19T14:51:36;36.80;61.60
20442;DHT22;10380;52.102;20.614;2022-07-19T14:54:03;36.40;62.40
20442;DHT22;10380;52.102;20.614;2022-07-19T14:56:40;35.60;63.00
20442;DHT22;10380;52.102;20.614;2022-07-19T14:59:07;35.10;63.50
20442;DHT22;10380;52.102;20.614;2022-07-19T15:01:34;34.80;64.00
20442;DHT22;10380;52.102;20.614;2022-07-19T15:04:02;34.60;65.00
20442;DHT22;10380;52.102;20.614;2022-07-19T15:06:29;34.80;65.20
20442;DHT22;10380;52.102;20.614;2022-07-19T15:09:00;35.10;64.70
20442;DHT22;10380;52.102;20.614;2022-07-19T15:11:27;35.20;64.90
20442;DHT22;10380;52.102;20.614;2022-07-19T15:14:00;35.50;64.20
20442;DHT22;10380;52.102;20.614;2022-07-19T15:16:27;35.80;63.60
20442;DHT22;10380;52.102;20.614;2022-07-19T15:18:54;36.00;63.50
20442;DHT22;10380;52.102;20.614;2022-07-19T15:21:21;36.30;63.50
20442;DHT22;10380;52.102;20.614;2022-07-19T15:23:49;36.60;63.30
20442;DHT22;10380;52.102;20.614;2022-07-19T15:26:16;36.70;63.10
20442;DHT22;10380;52.102;20.614;2022-07-19T15:28:43;36.30;63.30
20442;DHT22;10380;52.102;20.614;2022-07-19T15:31:10;36.10;64.00
20442;DHT22;10380;52.102;20.614;2022-07-19T15:33:37;35.90;63.50
20442;DHT22;10380;52.102;20.614;2022-07-19T15:36:05;35.80;63.60
20442;DHT22;10380;52.102;20.614;2022-07-19T15:38:32;35.70;64.00
20442;DHT22;10380;52.102;20.614;2022-07-19T15:40:59;35.50;64.50
20442;DHT22;10380;52.102;20.614;2022-07-19T15:43:26;35.30;64.60
20442;DHT22;10380;52.102;20.614;2022-07-19T15:45:53;35.40;64.90
20442;DHT22;10380;52.102;20.614;2022-07-19T15:48:20;35.60;64.20